Arlington, Tennessee
Current Conditions -  °F | °C
As of 11:55 AM on Saturday 25 Oct 2014 (Local Time) from KNQA Reporting Station
Scattered Clouds Scattered Clouds  
Wind Chill: 77°   Ceiling: Unl
Heat Index: 79°   Visibility: 10mi
Dew Point: 64°   Wind: 5mph
Humidity: 65%   Direction: 220°SW
Pressure: 30.08"   Gusts: NA
Location:  35.3°N, 89.66°W
Report Text: KNQA 251655Z 22004KT 10SM SCT049 25/18 A3008
Loading
Personal Weather Stations






























Interactive Weather Map
Tropical Storm Tracking
New forecast layout! Learn more

10-Day Weather Forecast

Advertisements
Track Severe Weather on mobile